Time;durP1;ratioP1;P1;durP2;ratioP2;P2;SDS_P1;SDS_P2;PMS_P1;PMS_P2;Temp;Humidity;BMP_temperature;BMP_pressure;BME280_temperature;BME280_humidity;BME280_pressure;Samples;Min_cycle;Max_cycle;Signal;HPM_P1;HPM_P2
2023/05/27 00:01:01;;;;;;;;;;;;;;;14.52;59.53;101670.69;4932507;29;2011;-74
2023/05/27 00:03:27;;;;;;;;;;;;;;;14.52;59.48;101684.25;4932501;29;2022;-74
2023/05/27 00:05:54;;;;;;;;;;;;;;;14.51;59.53;101684.47;4934105;29;1954;-74
2023/05/27 00:08:20;;;;;;;;;;;;;;;14.49;59.49;101681.13;4935170;29;2264;-74
2023/05/27 00:10:48;;;;;;;;;;;;;;;14.48;59.55;101680.31;4937014;29;1211;-75
2023/05/27 00:13:15;;;;;;;;;;;;;;;14.46;59.39;101674.25;4934575;29;2102;-74
2023/05/27 00:15:41;;;;;;;;;;;;;;;14.46;59.51;101676.13;4933639;29;2141;-73
2023/05/27 00:18:09;;;;;;;;;;;;;;;14.45;59.45;101677.19;4932973;29;2196;-74
2023/05/27 00:20:35;;;;;;;;;;;;;;;14.44;59.49;101662.81;4933653;29;2542;-74
2023/05/27 00:23:02;;;;;;;;;;;;;;;14.43;59.55;101665.75;4929366;29;2225;-74
2023/05/27 00:25:28;;;;;;;;;;;;;;;14.42;59.51;101664.09;4936532;29;2257;-74
2023/05/27 00:27:55;;;;;;;;;;;;;;;14.42;59.56;101683.06;4932004;29;2078;-74
2023/05/27 00:30:21;;;;;;;;;;;;;;;14.40;59.45;101680.56;4916317;29;2185;-74
2023/05/27 00:32:48;;;;;;;;;;;;;;;14.40;59.54;101674.31;4935127;29;2026;-74
2023/05/27 00:35:15;;;;;;;;;;;;;;;14.42;59.32;101673.03;4933096;29;1967;-74
2023/05/27 00:37:41;;;;;;;;;;;;;;;14.37;59.40;101669.31;4932051;29;2091;-74
2023/05/27 00:40:08;;;;;;;;;;;;;;;14.39;59.11;101667.22;4934260;29;1738;-73
2023/05/27 00:42:35;;;;;;;;;;;;;;;14.35;59.42;101671.41;4916866;29;1929;-74
2023/05/27 00:45:01;;;;;;;;;;;;;;;14.32;59.26;101678.94;4934971;29;2008;-74
2023/05/27 00:47:28;;;;;;;;;;;;;;;14.32;59.45;101683.50;4931151;29;1972;-75
2023/05/27 00:49:55;;;;;;;;;;;;;;;14.30;59.23;101672.91;4933333;29;4851;-75
2023/05/27 00:52:21;;;;;;;;;;;;;;;14.30;59.28;101682.91;4932300;29;4780;-76
2023/05/27 00:54:48;;;;;;;;;;;;;;;14.27;59.09;101678.75;4931911;29;3779;-73
2023/05/27 00:57:15;;;;;;;;;;;;;;;14.27;59.31;101670.63;4934797;29;1520;-74
2023/05/27 00:59:41;;;;;;;;;;;;;;;14.27;59.29;101658.97;4934465;29;1533;-73
2023/05/27 01:02:08;;;;;;;;;;;;;;;14.28;59.17;101655.19;4930888;29;2000;-73
2023/05/27 01:04:36;;;;;;;;;;;;;;;14.23;59.17;101661.25;4917313;29;1914;-74
2023/05/27 01:07:02;;;;;;;;;;;;;;;14.24;59.02;101657.50;4934215;29;3899;-74
2023/05/27 01:09:29;;;;;;;;;;;;;;;14.23;59.18;101666.66;4933264;29;2126;-73
2023/05/27 01:11:55;;;;;;;;;;;;;;;14.23;59.04;101666.66;4935114;29;1877;-73
2023/05/27 01:14:22;;;;;;;;;;;;;;;14.22;59.12;101669.63;4934535;29;2349;-73
2023/05/27 01:16:48;;;;;;;;;;;;;;;14.20;59.16;101671.69;4928733;29;2168;-74
2023/05/27 01:19:16;;;;;;;;;;;;;;;14.27;58.81;101661.66;4933252;29;2331;-74
2023/05/27 01:21:44;;;;;;;;;;;;;;;14.23;58.67;101668.56;4931403;29;1592;-73
2023/05/27 01:24:11;;;;;;;;;;;;;;;14.20;58.92;101658.97;4931296;29;2062;-73
2023/05/27 01:26:38;;;;;;;;;;;;;;;14.19;58.80;101657.31;4913942;29;1997;-76
2023/05/27 01:29:04;;;;;;;;;;;;;;;14.18;58.97;101658.38;4934502;29;1992;-73
2023/05/27 01:31:31;;;;;;;;;;;;;;;14.22;58.66;101662.31;4932602;29;2003;-74
2023/05/27 01:33:58;;;;;;;;;;;;;;;14.14;58.65;101651.72;4932693;29;2085;-76
2023/05/27 01:36:24;;;;;;;;;;;;;;;14.11;58.97;101659.47;4933706;29;1971;-76
2023/05/27 01:38:51;;;;;;;;;;;;;;;14.18;58.58;101655.69;4932784;29;1979;-73
2023/05/27 01:41:17;;;;;;;;;;;;;;;14.14;58.59;101662.56;4930010;29;2193;-73
2023/05/27 01:43:44;;;;;;;;;;;;;;;14.08;58.71;101658.00;4932556;29;2129;-74
2023/05/27 01:46:10;;;;;;;;;;;;;;;14.02;59.03;101651.56;4931313;29;2113;-75
2023/05/27 01:48:37;;;;;;;;;;;;;;;14.11;58.41;101654.88;4933426;29;2256;-76
2023/05/27 01:51:03;;;;;;;;;;;;;;;14.02;58.64;101656.16;4933103;29;1944;-73
2023/05/27 01:53:30;;;;;;;;;;;;;;;14.00;58.77;101650.97;4931431;28;2051;-74
2023/05/27 01:55:56;;;;;;;;;;;;;;;13.98;58.71;101652.22;4934011;29;1577;-73
2023/05/27 01:58:23;;;;;;;;;;;;;;;14.03;58.51;101646.97;4912228;29;4683;-76
2023/05/27 02:00:50;;;;;;;;;;;;;;;14.02;58.61;101651.56;4931786;29;2197;-73
2023/05/27 02:03:16;;;;;;;;;;;;;;;13.99;58.65;101652.00;4929467;29;3754;-73
2023/05/27 02:05:43;;;;;;;;;;;;;;;13.98;58.60;101644.94;4932509;29;1942;-73
2023/05/27 02:08:10;;;;;;;;;;;;;;;13.98;58.68;101642.22;4915181;29;1944;-74
2023/05/27 02:10:37;;;;;;;;;;;;;;;13.93;58.67;101641.22;4915105;29;1727;-74
2023/05/27 02:13:03;;;;;;;;;;;;;;;13.97;58.34;101639.72;4929712;29;2104;-74
2023/05/27 02:15:31;;;;;;;;;;;;;;;13.90;58.68;101641.63;4930764;29;3830;-74
2023/05/27 02:17:58;;;;;;;;;;;;;;;13.92;58.58;101645.81;4924842;29;2120;-73
2023/05/27 02:20:24;;;;;;;;;;;;;;;13.91;58.48;101646.81;4914193;29;1774;-74
2023/05/27 02:22:51;;;;;;;;;;;;;;;13.89;58.67;101642.69;4928136;29;2058;-74
2023/05/27 02:25:18;;;;;;;;;;;;;;;13.86;58.51;101642.06;4933204;29;1919;-74
2023/05/27 02:27:48;;;;;;;;;;;;;;;13.83;58.47;101631.69;4930758;29;2218;-76
2023/05/27 02:30:14;;;;;;;;;;;;;;;13.83;58.56;101649.81;4929279;29;1983;-73
2023/05/27 02:32:41;;;;;;;;;;;;;;;13.81;58.69;101643.75;4931453;29;2075;-74
2023/05/27 02:35:08;;;;;;;;;;;;;;;13.81;58.43;101639.16;4931191;29;1652;-73
2023/05/27 02:37:35;;;;;;;;;;;;;;;13.79;58.70;101643.13;4928568;29;1917;-73
2023/05/27 02:40:01;;;;;;;;;;;;;;;13.79;58.37;101643.13;4907251;29;1770;-74
2023/05/27 02:42:29;;;;;;;;;;;;;;;13.75;58.40;101631.91;4915248;29;2036;-74
2023/05/27 02:44:56;;;;;;;;;;;;;;;13.76;58.50;101630.84;4931857;29;2022;-73
2023/05/27 02:47:23;;;;;;;;;;;;;;;13.71;58.33;101632.56;4914793;29;2113;-73
2023/05/27 02:49:49;;;;;;;;;;;;;;;13.73;58.40;101630.47;4932985;29;1979;-73
2023/05/27 02:52:16;;;;;;;;;;;;;;;13.74;58.35;101642.97;4931670;29;2232;-74
2023/05/27 02:54:42;;;;;;;;;;;;;;;13.72;58.29;101643.16;4905347;29;2214;-75
2023/05/27 02:57:09;;;;;;;;;;;;;;;13.72;58.32;101645.06;4926510;29;2128;-74
2023/05/27 02:59:35;;;;;;;;;;;;;;;13.66;58.33;101643.19;4933519;29;1577;-74
2023/05/27 03:02:02;;;;;;;;;;;;;;;13.66;58.43;101637.78;4925484;29;4797;-72
2023/05/27 03:04:28;;;;;;;;;;;;;;;13.69;58.20;101631.94;4931669;29;3700;-76
2023/05/27 03:06:55;;;;;;;;;;;;;;;13.70;58.08;101636.31;4935268;29;3709;-76
2023/05/27 03:09:22;;;;;;;;;;;;;;;13.69;58.13;101634.66;4935770;29;2026;-74
2023/05/27 03:11:48;;;;;;;;;;;;;;;13.63;58.28;101641.75;4911515;29;2278;-75
2023/05/27 03:14:15;;;;;;;;;;;;;;;13.62;58.22;101640.91;4911481;29;2072;-75
2023/05/27 03:16:41;;;;;;;;;;;;;;;13.56;58.28;101624.69;4907118;29;2429;-74
2023/05/27 03:19:08;;;;;;;;;;;;;;;13.59;58.15;101619.69;4903613;29;3739;-74
2023/05/27 03:21:35;;;;;;;;;;;;;;;13.56;58.36;101625.53;4909955;29;2370;-74
2023/05/27 03:24:02;;;;;;;;;;;;;;;13.56;58.24;101630.09;4932694;29;2215;-76
2023/05/27 03:26:29;;;;;;;;;;;;;;;13.57;58.23;101621.78;4907107;29;2228;-73
2023/05/27 03:28:55;;;;;;;;;;;;;;;13.53;58.16;101608.88;4906537;29;2245;-75
2023/05/27 03:31:22;;;;;;;;;;;;;;;13.52;58.07;101608.03;4918539;29;2462;-76
2023/05/27 03:33:48;;;;;;;;;;;;;;;13.49;58.39;101616.59;4906406;29;2319;-74
2023/05/27 03:36:15;;;;;;;;;;;;;;;13.50;58.14;101623.69;4903719;29;2289;-73
2023/05/27 03:38:41;;;;;;;;;;;;;;;13.51;58.09;101619.94;4913432;29;2313;-73
2023/05/27 03:41:08;;;;;;;;;;;;;;;13.48;58.21;101627.66;4905409;29;2415;-73
2023/05/27 03:43:34;;;;;;;;;;;;;;;13.44;58.11;101632.63;4925655;29;2296;-73
2023/05/27 03:46:01;;;;;;;;;;;;;;;13.44;58.10;101637.22;4934574;29;2050;-73
2023/05/27 03:48:28;;;;;;;;;;;;;;;13.43;58.25;101635.56;4930939;29;2157;-74
2023/05/27 03:50:54;;;;;;;;;;;;;;;13.42;58.22;101623.91;4935030;29;1941;-74
2023/05/27 03:53:21;;;;;;;;;;;;;;;13.42;58.12;101618.50;4934379;29;2388;-75
2023/05/27 03:55:47;;;;;;;;;;;;;;;13.39;58.01;101627.88;4933804;29;1986;-74
2023/05/27 03:58:14;;;;;;;;;;;;;;;13.38;57.94;101626.22;4933172;29;1615;-74
2023/05/27 04:00:41;;;;;;;;;;;;;;;13.41;58.20;101627.63;4932321;29;1949;-75
2023/05/27 04:03:07;;;;;;;;;;;;;;;13.42;57.97;101632.03;4931012;29;2069;-75
2023/05/27 04:05:34;;;;;;;;;;;;;;;13.36;58.02;101627.47;4910640;29;2215;-74
2023/05/27 04:08:01;;;;;;;;;;;;;;;13.42;57.70;101625.78;4931631;29;2148;-74
2023/05/27 04:10:27;;;;;;;;;;;;;;;13.42;57.76;101628.50;4936599;29;2082;-75
2023/05/27 04:13:04;;;;;;;;;;;;;;;13.36;57.95;101630.19;4924027;29;2077;-76
2023/05/27 04:15:36;;;;;;;;;;;;;;;13.32;57.95;101628.91;4918041;29;2291;-75
2023/05/27 04:18:23;;;;;;;;;;;;;;;13.32;57.87;101629.75;4912845;29;2702;-75
2023/05/27 04:23:54;;;;;;;;;;;;;;;13.33;57.92;101636.00;5104531;23;2027;-75
2023/05/27 04:26:42;;;;;;;;;;;;;;;13.29;57.82;101624.75;5004850;28;1988;-74
2023/05/27 04:29:11;;;;;;;;;;;;;;;13.30;57.85;101625.63;4998849;28;2098;-74
2023/05/27 04:31:39;;;;;;;;;;;;;;;13.27;57.83;101632.28;4997740;28;2066;-76
2023/05/27 04:34:07;;;;;;;;;;;;;;;13.28;57.77;101625.81;4998892;28;2062;-74
2023/05/27 04:36:34;;;;;;;;;;;;;;;13.26;57.84;101617.06;4982923;28;2123;-76
2023/05/27 04:39:02;;;;;;;;;;;;;;;13.25;57.83;101625.38;5018757;28;1883;-75
2023/05/27 04:41:28;;;;;;;;;;;;;;;13.23;57.82;101616.63;5008618;28;2057;-75
2023/05/27 04:43:56;;;;;;;;;;;;;;;13.25;57.81;101620.81;4998247;28;2112;-75
2023/05/27 04:46:23;;;;;;;;;;;;;;;13.23;57.75;101624.75;4997480;28;2065;-74
2023/05/27 04:48:50;;;;;;;;;;;;;;;13.24;57.64;101612.91;4997580;28;2112;-74
2023/05/27 04:51:17;;;;;;;;;;;;;;;13.23;57.79;101612.03;4997478;28;2109;-74
2023/05/27 04:53:44;;;;;;;;;;;;;;;13.22;57.69;101614.97;4982549;28;2453;-74
2023/05/27 04:56:14;;;;;;;;;;;;;;;13.26;57.65;101613.53;4975309;28;2393;-73
2023/05/27 04:58:42;;;;;;;;;;;;;;;13.27;57.38;101620.63;4965295;28;2456;-73
2023/05/27 05:01:16;;;;;;;;;;;;;;;13.23;57.39;101622.03;4951746;28;2415;-73
2023/05/27 05:03:51;;;;;;;;;;;;;;;13.24;57.35;101618.31;4990264;28;2188;-74
2023/05/27 05:06:18;;;;;;;;;;;;;;;13.19;57.56;101625.16;4983699;28;2195;-74
2023/05/27 05:08:45;;;;;;;;;;;;;;;13.22;57.47;101618.50;4973337;28;2464;-76
2023/05/27 05:11:11;;;;;;;;;;;;;;;13.18;57.33;101618.09;4975627;28;2482;-75
2023/05/27 05:13:38;;;;;;;;;;;;;;;13.16;57.61;101617.47;4994055;28;1194;-77
2023/05/27 05:16:04;;;;;;;;;;;;;;;13.22;57.31;101610.41;4989803;28;2062;-74
2023/05/27 05:18:31;;;;;;;;;;;;;;;13.17;57.58;101613.72;4990576;28;2245;-76
2023/05/27 05:20:58;;;;;;;;;;;;;;;13.16;57.49;101625.59;4993557;28;1016;-74
2023/05/27 05:23:24;;;;;;;;;;;;;;;13.14;57.51;101621.44;4976535;28;2261;-73
2023/05/27 05:25:57;;;;;;;;;;;;;;;13.13;57.47;101623.31;4957402;28;4840;-76
2023/05/27 05:28:24;;;;;;;;;;;;;;;13.15;57.26;101631.22;4977890;28;2640;-76
2023/05/27 05:30:51;;;;;;;;;;;;;;;13.12;57.31;101620.84;4979006;28;2085;-74
2023/05/27 05:33:17;;;;;;;;;;;;;;;13.16;57.17;101625.59;4978093;28;1779;-76
2023/05/27 05:35:44;;;;;;;;;;;;;;;13.12;57.47;101618.13;4945974;28;2248;-76
2023/05/27 05:38:10;;;;;;;;;;;;;;;13.11;57.19;101605.63;4952091;28;2161;-74
2023/05/27 05:40:37;;;;;;;;;;;;;;;13.10;57.29;101596.69;4969488;28;1983;-73
2023/05/27 05:43:03;;;;;;;;;;;;;;;13.11;57.44;101606.44;4952278;28;2053;-73
2023/05/27 05:45:30;;;;;;;;;;;;;;;13.11;57.18;101611.03;4951432;28;2250;-73
2023/05/27 05:47:57;;;;;;;;;;;;;;;13.12;57.05;101601.91;4966906;28;2260;-73
2023/05/27 05:50:23;;;;;;;;;;;;;;;13.10;57.24;101603.97;4976119;28;2067;-74
2023/05/27 05:52:50;;;;;;;;;;;;;;;13.09;57.35;101596.91;4981908;28;1794;-74
2023/05/27 05:55:17;;;;;;;;;;;;;;;13.11;57.13;101595.63;4981523;28;1994;-74
2023/05/27 05:57:43;;;;;;;;;;;;;;;13.09;57.21;101595.03;4981973;28;886;-73
2023/05/27 06:00:11;;;;;;;;;;;;;;;13.09;57.24;101595.03;4980506;28;1974;-74
2023/05/27 06:02:37;;;;;;;;;;;;;;;13.09;57.15;101603.16;4979385;28;1707;-74
2023/05/27 06:05:04;;;;;;;;;;;;;;;13.09;57.08;101599.63;4980119;28;1915;-74
2023/05/27 06:07:31;;;;;;;;;;;;;;;13.08;57.30;101604.16;4979982;28;2018;-75
2023/05/27 06:09:57;;;;;;;;;;;;;;;13.09;57.21;101602.31;4953064;28;2430;-74
2023/05/27 06:12:24;;;;;;;;;;;;;;;13.08;57.21;101600.63;4957824;28;2313;-74
2023/05/27 06:14:50;;;;;;;;;;;;;;;13.07;57.01;101589.00;4933282;28;2314;-74
2023/05/27 06:17:17;;;;;;;;;;;;;;;13.11;57.09;101601.03;4962781;28;2335;-74
2023/05/27 06:19:43;;;;;;;;;;;;;;;13.07;57.13;101589.00;4963628;28;2011;-74
2023/05/27 06:22:10;;;;;;;;;;;;;;;13.07;57.05;101601.69;4980752;28;2268;-75
2023/05/27 06:24:36;;;;;;;;;;;;;;;13.06;56.99;101595.47;4978934;28;1800;-74
2023/05/27 06:27:03;;;;;;;;;;;;;;;13.05;57.00;101607.28;4960123;28;2048;-73
2023/05/27 06:29:30;;;;;;;;;;;;;;;13.05;57.14;101601.88;4978309;28;1975;-73
2023/05/27 06:31:56;;;;;;;;;;;;;;;13.05;56.98;101601.88;4978916;28;1950;-75
2023/05/27 06:34:23;;;;;;;;;;;;;;;13.05;56.81;101606.47;4955471;28;2630;-76
2023/05/27 06:36:49;;;;;;;;;;;;;;;13.05;56.94;101610.00;4940491;28;2152;-75
2023/05/27 06:39:18;;;;;;;;;;;;;;;13.05;56.75;101614.59;4958033;28;2747;-74
2023/05/27 06:41:45;;;;;;;;;;;;;;;13.03;56.97;101608.53;4937652;28;2111;-75
2023/05/27 06:44:11;;;;;;;;;;;;;;;13.04;56.91;101602.13;4951507;28;2208;-74
2023/05/27 06:46:42;;;;;;;;;;;;;;;13.03;56.73;101593.19;4941020;28;2217;-74
2023/05/27 06:49:09;;;;;;;;;;;;;;;13.04;56.83;101597.53;4959662;28;2510;-74
2023/05/27 06:51:36;;;;;;;;;;;;;;;13.02;56.92;101591.50;4979884;28;2050;-73
2023/05/27 06:54:02;;;;;;;;;;;;;;;13.03;56.70;101589.63;4965846;28;1861;-76
2023/05/27 06:56:29;;;;;;;;;;;;;;;13.03;56.76;101584.22;4966562;28;1547;-75
2023/05/27 06:58:55;;;;;;;;;;;;;;;13.03;56.89;101584.22;4965799;28;1756;-73
2023/05/27 07:01:22;;;;;;;;;;;;;;;13.02;56.88;101590.66;4961810;28;2093;-74
2023/05/27 07:03:48;;;;;;;;;;;;;;;13.01;56.81;101580.91;4964411;28;2568;-74
2023/05/27 07:06:16;;;;;;;;;;;;;;;13.02;56.74;101587.97;4941166;28;2238;-74
2023/05/27 07:08:42;;;;;;;;;;;;;;;13.02;56.70;101580.69;4959895;28;2086;-74
2023/05/27 07:11:09;;;;;;;;;;;;;;;13.01;56.99;101576.31;4955684;28;2325;-75
2023/05/27 07:13:35;;;;;;;;;;;;;;;13.02;56.76;101559.03;4975921;28;1965;-74
2023/05/27 07:16:02;;;;;;;;;;;;;;;13.01;56.78;101573.63;4953851;28;2666;-75
2023/05/27 07:18:29;;;;;;;;;;;;;;;13.00;56.90;101577.38;4931402;28;2356;-75
2023/05/27 07:20:58;;;;;;;;;;;;;;;12.99;56.95;101580.28;4959959;28;2624;-75
2023/05/27 07:23:24;;;;;;;;;;;;;;;12.99;56.78;101575.69;4951883;28;2594;-75
2023/05/27 07:25:51;;;;;;;;;;;;;;;12.99;56.56;101567.56;4940509;28;4858;-74
2023/05/27 07:28:18;;;;;;;;;;;;;;;12.99;56.77;101554.06;4963953;28;3244;-74
2023/05/27 07:30:44;;;;;;;;;;;;;;;13.00;56.90;101560.28;4950284;28;2627;-74
2023/05/27 07:33:10;;;;;;;;;;;;;;;12.98;56.81;101563.22;4950974;28;2665;-74
2023/05/27 07:35:37;;;;;;;;;;;;;;;12.99;56.71;101554.06;4963458;28;2392;-74
2023/05/27 07:38:04;;;;;;;;;;;;;;;12.99;56.81;101556.75;4955274;28;2558;-74
2023/05/27 07:40:30;;;;;;;;;;;;;;;12.98;56.73;101548.88;4959344;28;2498;-74
2023/05/27 07:42:57;;;;;;;;;;;;;;;12.99;56.75;101550.53;4956689;28;2376;-74
2023/05/27 07:45:23;;;;;;;;;;;;;;;12.98;56.81;101538.06;4944828;28;3301;-75
2023/05/27 07:47:50;;;;;;;;;;;;;;;12.97;56.71;101542.66;4940697;28;2407;-75
2023/05/27 07:50:16;;;;;;;;;;;;;;;12.98;56.73;101538.88;4959312;28;2305;-75
2023/05/27 07:52:43;;;;;;;;;;;;;;;12.48;56.67;101458.31;4960668;28;2134;-75
2023/05/27 07:55:09;;;;;;;;;;;;;;;12.97;56.76;101542.66;4964651;28;2503;-75
2023/05/27 07:57:36;;;;;;;;;;;;;;;12.99;56.78;101531.59;4962333;28;2288;-75
2023/05/27 08:00:03;;;;;;;;;;;;;;;12.98;56.58;101528.06;4962571;28;2394;-76
2023/05/27 08:02:30;;;;;;;;;;;;;;;12.98;56.51;101521.84;4962901;28;2629;-75
2023/05/27 08:04:57;;;;;;;;;;;;;;;12.98;56.76;101516.44;4952607;28;2638;-75
2023/05/27 08:07:23;;;;;;;;;;;;;;;12.98;56.67;101516.44;4953359;28;2640;-74
2023/05/27 08:09:50;;;;;;;;;;;;;;;12.99;56.75;101523.50;4942068;28;2583;-76
2023/05/27 08:12:16;;;;;;;;;;;;;;;12.99;56.52;101515.38;4974153;28;2093;-76
2023/05/27 08:14:43;;;;;;;;;;;;;;;12.99;56.37;101499.16;4984223;28;1245;-74
2023/05/27 08:17:09;;;;;;;;;;;;;;;12.99;56.56;101499.16;4947209;28;2203;-73
2023/05/27 08:19:36;;;;;;;;;;;;;;;12.98;56.54;101495.63;4951460;28;2740;-73
2023/05/27 08:22:03;;;;;;;;;;;;;;;13.00;56.55;101498.94;4935641;28;2239;-74
2023/05/27 08:24:30;;;;;;;;;;;;;;;12.98;56.65;101495.63;4939136;28;2163;-75
2023/05/27 08:26:57;;;;;;;;;;;;;;;12.99;56.65;101485.63;4952836;28;2624;-74
2023/05/27 08:29:27;;;;;;;;;;;;;;;12.99;56.56;101489.16;4956686;28;2596;-75
2023/05/27 08:31:53;;;;;;;;;;;;;;;13.00;56.30;101490.00;4961527;28;2126;-74
2023/05/27 08:34:20;;;;;;;;;;;;;;;13.01;56.45;101480.84;4936553;28;2130;-77
2023/05/27 08:36:46;;;;;;;;;;;;;;;12.99;56.41;101481.06;4947145;28;4859;-74
2023/05/27 08:39:13;;;;;;;;;;;;;;;13.01;56.47;101468.16;4953294;28;2565;-74
2023/05/27 08:41:39;;;;;;;;;;;;;;;13.01;56.19;101480.84;4956745;28;2860;-74
2023/05/27 08:44:06;;;;;;;;;;;;;;;13.02;56.45;101460.88;4964518;28;2216;-74
2023/05/27 08:46:32;;;;;;;;;;;;;;;13.01;56.38;101456.50;4970778;28;2063;-75
2023/05/27 08:48:59;;;;;;;;;;;;;;;13.00;56.44;101450.28;4979180;28;1891;-74
2023/05/27 08:51:26;;;;;;;;;;;;;;;13.00;56.44;101444.88;4965279;28;2243;-75
2023/05/27 08:53:52;;;;;;;;;;;;;;;13.01;56.39;101449.22;4963736;28;3328;-76
2023/05/27 08:56:19;;;;;;;;;;;;;;;13.01;56.40;101460.03;4975836;28;2124;-76
2023/05/27 08:58:45;;;;;;;;;;;;;;;13.03;56.25;101457.09;4963627;28;2182;-76
2023/05/27 09:01:12;;;;;;;;;;;;;;;13.02;56.41;101461.69;4955726;28;2566;-76
2023/05/27 09:03:39;;;;;;;;;;;;;;;13.02;56.54;101450.06;4954499;28;2203;-74
2023/05/27 09:06:05;;;;;;;;;;;;;;;13.04;56.34;101442.56;4939136;28;2663;-76
2023/05/27 09:08:32;;;;;;;;;;;;;;;13.03;56.28;101443.59;4938802;28;2571;-75
2023/05/27 09:10:58;;;;;;;;;;;;;;;13.04;56.27;101443.38;4960750;28;2596;-74
2023/05/27 09:13:25;;;;;;;;;;;;;;;13.03;56.53;101433.63;4975922;28;1969;-73
2023/05/27 09:15:52;;;;;;;;;;;;;;;13.05;56.37;101433.41;4969821;28;1207;-74
2023/05/27 09:18:18;;;;;;;;;;;;;;;13.04;56.38;101434.44;4981137;28;1997;-74
2023/05/27 09:20:45;;;;;;;;;;;;;;;13.05;56.22;101434.22;4980696;28;2092;-75
2023/05/27 09:23:12;;;;;;;;;;;;;;;13.05;56.22;101436.09;4971334;28;1965;-74
2023/05/27 09:25:38;;;;;;;;;;;;;;;13.04;56.41;101427.16;4965551;28;1277;-74
2023/05/27 09:28:05;;;;;;;;;;;;;;;13.05;56.31;101431.50;4962575;28;2092;-75
2023/05/27 09:30:32;;;;;;;;;;;;;;;13.06;56.40;101421.53;4982017;28;1024;-73
2023/05/27 09:32:59;;;;;;;;;;;;;;;13.06;56.35;101421.53;4981829;28;2142;-74
2023/05/27 09:35:25;;;;;;;;;;;;;;;13.06;56.34;101410.72;4982781;28;1004;-73
2023/05/27 09:37:52;;;;;;;;;;;;;;;13.07;56.20;101404.28;4962014;28;2099;-74
2023/05/27 09:40:18;;;;;;;;;;;;;;;13.07;56.53;101405.09;4975689;28;2187;-75
2023/05/27 09:42:45;;;;;;;;;;;;;;;13.07;56.00;101401.56;4961996;28;1818;-74
2023/05/27 09:45:12;;;;;;;;;;;;;;;13.06;56.39;101403.44;4980111;28;1999;-73
2023/05/27 09:47:38;;;;;;;;;;;;;;;13.07;56.32;101399.69;4981341;28;1999;-76
2023/05/27 09:50:05;;;;;;;;;;;;;;;13.07;56.37;101398.88;4958356;28;2017;-75
2023/05/27 09:52:31;;;;;;;;;;;;;;;13.11;56.30;101378.44;4939465;28;1861;-74
2023/05/27 09:54:58;;;;;;;;;;;;;;;13.09;56.29;101380.56;4968903;28;2083;-74
2023/05/27 09:57:24;;;;;;;;;;;;;;;13.09;56.45;101377.84;4947776;28;1850;-74
2023/05/27 09:59:51;;;;;;;;;;;;;;;13.09;56.68;101377.84;4966832;28;1940;-74
2023/05/27 10:02:17;;;;;;;;;;;;;;;13.10;56.44;101374.91;4953695;28;2133;-74
2023/05/27 10:04:44;;;;;;;;;;;;;;;13.13;56.62;101362.84;4935083;28;1993;-74
2023/05/27 10:07:12;;;;;;;;;;;;;;;13.11;56.59;101364.91;4935573;28;1918;-75
2023/05/27 10:09:39;;;;;;;;;;;;;;;13.12;56.53;101364.72;4957378;28;1881;-75
2023/05/27 10:12:05;;;;;;;;;;;;;;;13.11;56.42;101363.03;4960572;28;2072;-75
2023/05/27 10:14:32;;;;;;;;;;;;;;;13.12;56.49;101369.31;4956212;28;2044;-74
2023/05/27 10:16:58;;;;;;;;;;;;;;;13.12;56.23;101380.13;4939610;28;1773;-74
2023/05/27 10:19:25;;;;;;;;;;;;;;;13.11;56.05;101371.16;4938965;28;2065;-73
2023/05/27 10:21:51;;;;;;;;;;;;;;;13.13;56.51;101368.25;4935327;28;1966;-74
2023/05/27 10:24:18;;;;;;;;;;;;;;;13.13;56.46;101360.97;4954376;28;1690;-74
2023/05/27 10:26:44;;;;;;;;;;;;;;;13.14;56.72;101357.19;4959027;28;1938;-74
2023/05/27 10:29:11;;;;;;;;;;;;;;;13.15;56.72;101350.75;4968589;28;1997;-74
2023/05/27 10:31:38;;;;;;;;;;;;;;;13.17;56.67;101339.72;4978276;28;2082;-74
2023/05/27 10:34:04;;;;;;;;;;;;;;;13.17;56.44;101334.31;4970184;28;1929;-75
2023/05/27 10:36:31;;;;;;;;;;;;;;;13.15;56.36;101331.84;4960551;28;1927;-75
2023/05/27 10:38:58;;;;;;;;;;;;;;;13.17;56.53;101335.13;4978778;28;1988;-74
2023/05/27 10:41:25;;;;;;;;;;;;;;;13.17;56.56;101318.91;4980912;28;2091;-75
2023/05/27 10:43:51;;;;;;;;;;;;;;;13.18;56.56;101317.88;4979359;28;1943;-75
2023/05/27 10:46:18;;;;;;;;;;;;;;;13.19;56.59;101316.81;4979460;28;2078;-73
2023/05/27 10:48:45;;;;;;;;;;;;;;;13.19;56.72;101319.50;4979604;28;2049;-76
2023/05/27 10:51:11;;;;;;;;;;;;;;;13.20;56.70;101298.69;4977977;28;1933;-75
2023/05/27 10:53:38;;;;;;;;;;;;;;;13.22;56.73;101296.63;4981433;28;1526;-75
2023/05/27 10:56:04;;;;;;;;;;;;;;;13.23;56.82;101290.16;4980628;28;1487;-75
2023/05/27 10:58:31;;;;;;;;;;;;;;;13.24;56.64;101288.28;4981332;28;1495;-75
2023/05/27 11:00:57;;;;;;;;;;;;;;;13.23;56.86;101282.03;4980970;28;1865;-74
2023/05/27 11:03:24;;;;;;;;;;;;;;;13.25;56.95;101287.25;4980929;28;1067;-75
2023/05/27 11:05:50;;;;;;;;;;;;;;;13.26;56.75;101287.03;4972678;28;4659;-73
2023/05/27 11:08:17;;;;;;;;;;;;;;;13.26;56.76;101273.50;4978286;28;3027;-73
2023/05/27 11:10:43;;;;;;;;;;;;;;;13.26;56.82;101278.91;4981917;28;992;-74
2023/05/27 11:13:10;;;;;;;;;;;;;;;13.29;56.94;101283.06;4976630;28;3270;-74
2023/05/27 11:15:37;;;;;;;;;;;;;;;13.29;57.19;101283.06;4978771;28;2001;-74
2023/05/27 11:18:03;;;;;;;;;;;;;;;13.30;56.88;101282.88;4962176;28;2122;-74
2023/05/27 11:20:30;;;;;;;;;;;;;;;13.32;56.98;101278.03;4981088;28;2223;-74
2023/05/27 11:22:56;;;;;;;;;;;;;;;13.32;56.94;101286.16;4977391;28;1969;-74
2023/05/27 11:25:23;;;;;;;;;;;;;;;13.35;57.11;101282.19;4980862;28;4336;-74
2023/05/27 11:27:49;;;;;;;;;;;;;;;13.35;57.07;101255.13;4983070;28;1951;-75
2023/05/27 11:30:16;;;;;;;;;;;;;;;13.36;57.16;101273.88;4981795;28;1898;-75
2023/05/27 11:32:43;;;;;;;;;;;;;;;13.35;57.22;101258.69;4983389;28;2054;-76
2023/05/27 11:35:09;;;;;;;;;;;;;;;13.35;57.20;101272.22;4981966;28;1953;-74
2023/05/27 11:37:36;;;;;;;;;;;;;;;13.38;57.20;101271.78;4966116;28;2030;-73
2023/05/27 11:40:03;;;;;;;;;;;;;;;13.37;57.21;101271.97;4966213;28;1905;-74
2023/05/27 11:42:29;;;;;;;;;;;;;;;13.37;57.14;101272.81;4983448;28;2496;-74
2023/05/27 11:44:56;;;;;;;;;;;;;;;13.40;57.28;101258.00;4983303;28;1983;-74
2023/05/27 11:47:23;;;;;;;;;;;;;;;13.40;57.22;101263.41;4982742;28;2252;-74
2023/05/27 11:49:50;;;;;;;;;;;;;;;13.40;57.25;101260.72;4983413;28;1948;-75
2023/05/27 11:52:16;;;;;;;;;;;;;;;13.42;57.25;101247.81;4964614;28;2074;-74
2023/05/27 11:54:43;;;;;;;;;;;;;;;13.44;57.21;101248.38;4982788;28;2015;-73
2023/05/27 11:57:10;;;;;;;;;;;;;;;13.46;57.34;101243.59;4974027;28;2104;-75
2023/05/27 11:59:37;;;;;;;;;;;;;;;13.48;57.52;101238.78;4982599;28;1919;-74
2023/05/27 12:02:04;;;;;;;;;;;;;;;13.49;57.57;101229.63;4972190;28;2029;-75
2023/05/27 12:04:30;;;;;;;;;;;;;;;13.50;57.21;101234.00;4982457;28;1892;-75
2023/05/27 12:06:58;;;;;;;;;;;;;;;13.51;57.41;101229.41;4981897;28;2027;-74
2023/05/27 12:09:24;;;;;;;;;;;;;;;13.52;57.50;101228.34;4983274;28;2039;-75
2023/05/27 12:11:51;;;;;;;;;;;;;;;13.52;57.37;101226.47;4967127;28;1955;-75
2023/05/27 12:14:17;;;;;;;;;;;;;;;13.55;57.58;101236.03;4980566;28;2237;-75
2023/05/27 12:16:44;;;;;;;;;;;;;;;13.55;57.62;101231.44;4964593;28;2140;-75
2023/05/27 12:19:11;;;;;;;;;;;;;;;13.56;57.37;101233.09;4964534;28;2051;-75
2023/05/27 12:21:38;;;;;;;;;;;;;;;13.56;57.55;101227.69;4982135;28;1901;-74
2023/05/27 12:24:04;;;;;;;;;;;;;;;13.58;57.54;101224.75;4983205;28;1943;-73
2023/05/27 12:26:31;;;;;;;;;;;;;;;13.58;57.56;101219.34;4965245;28;1890;-73
2023/05/27 12:28:58;;;;;;;;;;;;;;;13.59;57.58;101213.72;4979418;28;2051;-74
2023/05/27 12:31:24;;;;;;;;;;;;;;;13.60;57.58;101209.13;4965615;28;2016;-73
2023/05/27 12:33:51;;;;;;;;;;;;;;;13.60;57.66;101211.81;4962679;28;2120;-74
2023/05/27 12:36:19;;;;;;;;;;;;;;;13.60;57.60;101206.41;4978505;28;2036;-74
2023/05/27 12:38:45;;;;;;;;;;;;;;;13.61;57.61;101211.59;4963492;28;1938;-75
2023/05/27 12:41:12;;;;;;;;;;;;;;;13.63;57.78;101208.66;4983371;28;1952;-75
2023/05/27 12:43:38;;;;;;;;;;;;;;;13.63;57.68;101197.84;4982024;28;1473;-74
2023/05/27 12:46:05;;;;;;;;;;;;;;;13.64;57.62;101199.50;4963398;28;1974;-74
2023/05/27 12:48:32;;;;;;;;;;;;;;;13.64;57.83;101194.06;4965021;28;1950;-75